createdAt,value
2023-04-11T00:00:01.202Z,46.42
2023-04-11T00:02:28.413Z,46.47
2023-04-11T00:04:55.523Z,46.24
2023-04-11T00:07:22.477Z,46.31
2023-04-11T00:09:49.396Z,46.25
2023-04-11T00:12:16.377Z,46.48
2023-04-11T00:14:45.710Z,46.56
2023-04-11T00:17:12.926Z,46.49
2023-04-11T00:19:39.814Z,46.29
2023-04-11T00:22:06.787Z,46.69
2023-04-11T00:24:33.686Z,46.44
2023-04-11T00:27:01.784Z,46.53
2023-04-11T00:29:28.796Z,46.69
2023-04-11T00:31:57.065Z,46.73
2023-04-11T00:34:23.974Z,46.67
2023-04-11T00:36:51.417Z,46.40
2023-04-11T00:39:18.916Z,46.49
2023-04-11T00:41:45.810Z,46.32
2023-04-11T00:44:14.240Z,46.80
2023-04-11T00:46:45.513Z,46.62
2023-04-11T00:49:13.417Z,46.74
2023-04-11T00:51:40.338Z,46.50
2023-04-11T00:54:10.597Z,46.49
2023-04-11T00:56:37.696Z,46.56
2023-04-11T00:59:04.817Z,46.60
2023-04-11T01:01:36.620Z,46.62
2023-04-11T01:04:03.892Z,46.64
2023-04-11T01:06:31.862Z,46.60
2023-04-11T01:08:58.849Z,46.38
2023-04-11T01:11:26.117Z,46.42
2023-04-11T01:13:53.450Z,46.76
2023-04-11T01:16:21.919Z,46.92
2023-04-11T01:18:49.334Z,46.86
2023-04-11T01:21:17.683Z,46.58
2023-04-11T01:23:45.083Z,46.66
2023-04-11T01:26:12.923Z,46.88
2023-04-11T01:28:39.894Z,46.57
2023-04-11T01:31:07.101Z,46.43
2023-04-11T01:33:34.335Z,46.48
2023-04-11T01:36:01.467Z,46.63
2023-04-11T01:38:28.437Z,46.76
2023-04-11T01:40:56.564Z,46.92
2023-04-11T01:43:23.572Z,46.77
2023-04-11T01:45:50.567Z,46.78
2023-04-11T01:48:17.627Z,46.89
2023-04-11T01:50:44.542Z,46.92
2023-04-11T01:53:11.509Z,46.76
2023-04-11T01:55:38.447Z,46.73
2023-04-11T01:58:05.575Z,46.68
2023-04-11T02:00:32.877Z,46.71
2023-04-11T02:02:59.925Z,46.52
2023-04-11T02:05:26.996Z,46.48
2023-04-11T02:07:53.919Z,46.61
2023-04-11T02:10:20.945Z,46.49
2023-04-11T02:12:47.842Z,46.64
2023-04-11T02:15:14.721Z,46.86
2023-04-11T02:17:45.681Z,46.61
2023-04-11T02:20:13.808Z,46.52
2023-04-11T02:22:40.979Z,46.94
2023-04-11T02:25:08.181Z,46.80
2023-04-11T02:27:35.140Z,46.55
2023-04-11T02:30:06.142Z,46.70
2023-04-11T02:32:34.926Z,46.85
2023-04-11T02:35:02.441Z,46.85
2023-04-11T02:37:29.421Z,46.67
2023-04-11T02:39:56.467Z,46.83
2023-04-11T02:42:23.492Z,46.50
2023-04-11T02:44:50.400Z,46.83
2023-04-11T02:47:17.309Z,46.49
2023-04-11T02:49:44.347Z,46.50
2023-04-11T02:52:11.269Z,46.89
2023-04-11T02:54:38.245Z,46.52
2023-04-11T02:57:05.201Z,46.56
2023-04-11T02:59:32.236Z,46.68
2023-04-11T03:01:59.869Z,46.39
2023-04-11T03:04:27.065Z,46.79
2023-04-11T03:06:54.250Z,46.64
2023-04-11T03:09:21.531Z,46.65
2023-04-11T03:11:48.478Z,46.46
2023-04-11T03:14:15.719Z,46.68
2023-04-11T03:16:42.602Z,46.85
2023-04-11T03:19:09.532Z,46.98
2023-04-11T03:21:36.551Z,46.46
2023-04-11T03:24:03.444Z,46.84
2023-04-11T03:26:30.455Z,46.47
2023-04-11T03:28:57.659Z,47.00
2023-04-11T03:31:24.970Z,46.46
2023-04-11T03:33:51.898Z,46.80
2023-04-11T03:36:18.868Z,46.64
2023-04-11T03:38:45.886Z,46.98
2023-04-11T03:41:13.073Z,46.74
2023-04-11T03:43:40.164Z,46.59
2023-04-11T03:46:07.191Z,46.80
2023-04-11T03:48:34.181Z,46.82
2023-04-11T03:51:01.080Z,46.64
2023-04-11T03:53:28.034Z,46.79
2023-04-11T03:55:55.255Z,46.61
2023-04-11T03:58:22.220Z,47.08
2023-04-11T04:00:49.133Z,47.08
2023-04-11T04:03:16.191Z,46.98
2023-04-11T04:05:43.357Z,47.02
2023-04-11T04:08:10.519Z,46.82
2023-04-11T04:10:37.439Z,46.68
2023-04-11T04:13:04.369Z,46.84
2023-04-11T04:15:31.296Z,47.03
2023-04-11T04:17:58.267Z,46.97
2023-04-11T04:20:25.223Z,46.74
2023-04-11T04:22:54.195Z,46.82
2023-04-11T04:25:22.139Z,46.67
2023-04-11T04:27:54.329Z,46.61
2023-04-11T04:30:22.353Z,46.92
2023-04-11T04:32:54.995Z,46.59
2023-04-11T04:35:22.075Z,46.71
2023-04-11T04:37:50.332Z,46.62
2023-04-11T04:40:20.885Z,46.86
2023-04-11T04:42:58.717Z,46.93
2023-04-11T04:45:26.652Z,46.52
2023-04-11T04:47:53.692Z,46.70
2023-04-11T04:50:20.905Z,46.76
2023-04-11T04:52:47.834Z,46.45
2023-04-11T04:55:14.956Z,46.47
2023-04-11T04:57:43.117Z,46.82
2023-04-11T05:00:12.064Z,46.51
2023-04-11T05:02:40.991Z,46.60
2023-04-11T05:05:08.429Z,46.48
2023-04-11T05:07:35.614Z,46.83
2023-04-11T05:10:02.687Z,46.90
2023-04-11T05:12:29.699Z,46.91
2023-04-11T05:14:57.082Z,46.68
2023-04-11T05:17:25.509Z,46.56
2023-04-11T05:19:52.913Z,46.43
2023-04-11T05:22:19.893Z,46.85
2023-04-11T05:24:46.780Z,46.57
2023-04-11T05:27:13.931Z,46.51
2023-04-11T05:29:40.896Z,46.65
2023-04-11T05:32:07.863Z,46.75
2023-04-11T05:34:34.838Z,46.59
2023-04-11T05:37:02.111Z,46.75
2023-04-11T05:39:29.029Z,46.63
2023-04-11T05:41:57.195Z,46.67
2023-04-11T05:44:24.322Z,46.64
2023-04-11T05:46:51.302Z,46.76
2023-04-11T05:49:18.192Z,46.60
2023-04-11T05:51:45.079Z,46.83
2023-04-11T05:54:12.163Z,46.89
2023-04-11T05:56:42.684Z,46.72
2023-04-11T05:59:09.655Z,46.77
2023-04-11T06:01:40.121Z,46.67
2023-04-11T06:04:07.483Z,46.80
2023-04-11T06:06:36.550Z,46.64
2023-04-11T06:09:03.530Z,46.84
2023-04-11T06:11:31.285Z,46.76
2023-04-11T06:13:58.444Z,46.81
2023-04-11T06:16:25.580Z,46.72
2023-04-11T06:18:52.634Z,46.49
2023-04-11T06:21:19.636Z,46.48
2023-04-11T06:23:46.600Z,46.41
2023-04-11T06:26:13.591Z,46.53
2023-04-11T06:28:40.534Z,46.58
2023-04-11T06:31:09.453Z,46.67
2023-04-11T06:33:36.442Z,46.37
2023-04-11T06:36:05.984Z,46.78
2023-04-11T06:38:35.270Z,46.40
2023-04-11T06:41:02.262Z,46.74
2023-04-11T06:43:29.332Z,46.55
2023-04-11T06:45:56.360Z,46.47
2023-04-11T06:48:23.641Z,46.64
2023-04-11T06:50:50.600Z,46.88
2023-04-11T06:53:17.684Z,46.61
2023-04-11T06:55:48.391Z,46.80
2023-04-11T06:58:15.474Z,46.50
2023-04-11T07:00:42.640Z,46.40
2023-04-11T07:03:09.962Z,46.45
2023-04-11T07:05:39.423Z,46.59
2023-04-11T07:08:06.743Z,46.47
2023-04-11T07:10:33.864Z,46.44
2023-04-11T07:13:00.981Z,46.50
2023-04-11T07:15:28.157Z,46.44
2023-04-11T07:17:55.238Z,46.29
2023-04-11T07:20:22.404Z,46.45
2023-04-11T07:22:49.637Z,46.50
2023-04-11T07:25:16.641Z,46.59
2023-04-11T07:27:44.099Z,46.60
2023-04-11T07:30:11.743Z,46.35
2023-04-11T07:32:38.876Z,46.37
2023-04-11T07:35:06.262Z,46.31
2023-04-11T07:37:33.289Z,46.20
2023-04-11T07:40:00.330Z,46.47
2023-04-11T07:42:27.310Z,46.15
2023-04-11T07:44:54.531Z,46.32
2023-04-11T07:47:21.993Z,46.05
2023-04-11T07:49:49.435Z,46.39
2023-04-11T07:52:16.418Z,46.11
2023-04-11T07:54:43.404Z,46.22
2023-04-11T07:57:10.643Z,46.13
2023-04-11T07:59:38.024Z,46.18
2023-04-11T08:02:07.529Z,46.29
2023-04-11T08:04:34.950Z,46.06
2023-04-11T08:07:02.690Z,46.18
2023-04-11T08:09:30.321Z,45.94
2023-04-11T08:11:57.552Z,46.18
2023-04-11T08:14:24.971Z,46.12
2023-04-11T08:16:53.335Z,46.20
2023-04-11T08:19:21.569Z,46.37
2023-04-11T08:21:49.164Z,46.01
2023-04-11T08:24:16.217Z,46.01
2023-04-11T08:26:43.495Z,45.95
2023-04-11T08:29:11.617Z,45.96
2023-04-11T08:31:43.899Z,46.44
2023-04-11T08:34:15.755Z,46.45
2023-04-11T08:36:43.180Z,45.91
2023-04-11T08:39:26.999Z,45.96
2023-04-11T08:41:54.432Z,46.07
2023-04-11T08:44:22.433Z,45.93
2023-04-11T08:46:49.428Z,46.07
2023-04-11T08:49:16.378Z,46.33
2023-04-11T08:51:45.064Z,46.19
2023-04-11T08:54:12.662Z,46.17
2023-04-11T08:56:42.156Z,46.30
2023-04-11T08:59:09.536Z,46.11
2023-04-11T09:01:37.838Z,45.84
2023-04-11T09:04:05.860Z,46.30
2023-04-11T09:06:34.129Z,45.99
2023-04-11T09:09:02.378Z,45.79
2023-04-11T09:11:29.651Z,46.17
2023-04-11T09:14:00.001Z,46.22
2023-04-11T09:16:27.463Z,45.97
2023-04-11T09:18:54.782Z,46.05
2023-04-11T09:21:22.131Z,45.90
2023-04-11T09:23:49.213Z,46.05
2023-04-11T09:26:26.681Z,45.61
2023-04-11T09:28:54.627Z,45.95
2023-04-11T09:31:22.480Z,45.81
2023-04-11T09:33:55.437Z,45.78
2023-04-11T09:36:23.690Z,45.71
2023-04-11T09:38:52.306Z,45.77
2023-04-11T09:41:22.363Z,45.83
2023-04-11T09:43:51.251Z,45.51
2023-04-11T09:46:21.522Z,45.69
2023-04-11T09:48:49.407Z,45.76
2023-04-11T09:51:31.805Z,45.54
2023-04-11T09:54:02.263Z,45.61
2023-04-11T09:56:29.650Z,45.19
2023-04-11T09:58:57.857Z,45.45
2023-04-11T10:01:26.012Z,45.65
2023-04-11T10:03:54.450Z,45.77
2023-04-11T10:06:32.128Z,45.77
2023-04-11T10:09:02.346Z,45.81
2023-04-11T10:11:29.519Z,45.30
2023-04-11T10:13:58.237Z,45.62
2023-04-11T10:16:27.122Z,45.56
2023-04-11T10:18:54.424Z,45.19
2023-04-11T10:21:24.786Z,45.11
2023-04-11T10:23:55.147Z,45.34
2023-04-11T10:26:42.258Z,45.12
2023-04-11T10:29:32.506Z,44.94
2023-04-11T10:32:02.604Z,44.93
2023-04-11T10:34:29.778Z,45.17
2023-04-11T10:37:00.519Z,45.01
2023-04-11T10:39:30.987Z,45.15
2023-04-11T10:42:18.063Z,44.93
2023-04-11T10:44:45.147Z,44.94
2023-04-11T10:47:17.944Z,44.60
2023-04-11T10:49:47.328Z,44.70
2023-04-11T10:52:17.904Z,44.52
2023-04-11T10:54:47.046Z,44.46
2023-04-11T10:57:14.633Z,44.76
2023-04-11T10:59:43.079Z,44.64
2023-04-11T11:02:10.766Z,44.74
2023-04-11T11:04:39.602Z,44.49
2023-04-11T11:07:07.738Z,44.29
2023-04-11T11:09:35.751Z,44.28
2023-04-11T11:12:06.974Z,44.08
2023-04-11T11:14:34.794Z,44.16
2023-04-11T11:17:03.520Z,44.01
2023-04-11T11:19:31.680Z,44.02
2023-04-11T11:22:02.043Z,44.13
2023-04-11T11:24:29.459Z,44.36
2023-04-11T11:26:57.590Z,44.26
2023-04-11T11:29:28.410Z,44.10
2023-04-11T11:31:56.220Z,44.34
2023-04-11T11:34:26.792Z,44.11
2023-04-11T11:36:54.451Z,44.00
2023-04-11T11:39:23.338Z,43.94
2023-04-11T11:41:51.892Z,44.02
2023-04-11T11:44:22.542Z,44.28
2023-04-11T11:46:53.052Z,44.14
2023-04-11T11:49:20.478Z,44.28
2023-04-11T11:51:48.674Z,43.85
2023-04-11T11:54:16.258Z,44.21
2023-04-11T11:56:50.045Z,44.02
2023-04-11T11:59:26.806Z,43.89
2023-04-11T12:01:57.943Z,44.32
2023-04-11T12:04:25.906Z,44.09
2023-04-11T12:06:54.978Z,43.81
2023-04-11T12:09:22.960Z,43.89
2023-04-11T12:11:55.489Z,44.08
2023-04-11T12:14:23.756Z,43.95
2023-04-11T12:16:54.640Z,43.93
2023-04-11T12:19:22.238Z,43.82
2023-04-11T12:21:49.744Z,43.95
2023-04-11T12:24:17.137Z,44.01
2023-04-11T12:27:02.788Z,43.98
2023-04-11T12:29:33.874Z,44.28
2023-04-11T12:32:01.506Z,44.55
2023-04-11T12:34:28.898Z,44.48
2023-04-11T12:36:58.572Z,44.74
2023-04-11T12:39:25.894Z,44.57
2023-04-11T12:41:53.445Z,44.76
2023-04-11T12:44:21.193Z,44.80
2023-04-11T12:46:48.555Z,44.81
2023-04-11T12:49:15.865Z,45.04
2023-04-11T12:51:43.293Z,45.04
2023-04-11T12:54:10.984Z,45.09
2023-04-11T12:56:39.090Z,45.18
2023-04-11T12:59:07.182Z,45.13
2023-04-11T13:01:50.326Z,45.02
2023-04-11T13:04:17.820Z,45.21
2023-04-11T13:06:45.311Z,45.40
2023-04-11T13:09:13.056Z,45.11
2023-04-11T13:11:40.593Z,45.21
2023-04-11T13:14:07.959Z,45.37
2023-04-11T13:16:35.319Z,45.24
2023-04-11T13:19:02.611Z,45.38
2023-04-11T13:21:29.875Z,45.02
2023-04-11T13:23:57.084Z,45.38
2023-04-11T13:26:24.233Z,45.38
2023-04-11T13:28:51.679Z,44.96
2023-04-11T13:31:19.830Z,45.00
2023-04-11T13:33:48.692Z,45.44
2023-04-11T13:36:16.137Z,45.52
2023-04-11T13:38:43.600Z,45.51
2023-04-11T13:41:13.098Z,45.38
2023-04-11T13:43:41.132Z,45.67
2023-04-11T13:46:08.768Z,45.70
2023-04-11T13:48:35.992Z,45.30
2023-04-11T13:51:04.879Z,45.66
2023-04-11T13:53:32.301Z,45.55
2023-04-11T13:55:59.784Z,45.77
2023-04-11T13:58:27.138Z,45.38
2023-04-11T14:00:54.727Z,45.75
2023-04-11T14:03:22.324Z,46.03
2023-04-11T14:05:49.825Z,45.78
2023-04-11T14:08:16.921Z,45.73
2023-04-11T14:10:44.728Z,45.64
2023-04-11T14:13:11.863Z,45.88
2023-04-11T14:15:39.177Z,46.11
2023-04-11T14:18:06.526Z,45.75
2023-04-11T14:20:34.022Z,46.12
2023-04-11T14:23:01.751Z,46.21
2023-04-11T14:25:29.298Z,45.90
2023-04-11T14:27:56.901Z,46.22
2023-04-11T14:30:24.362Z,46.08
2023-04-11T14:32:51.582Z,46.11
2023-04-11T14:35:19.236Z,46.29
2023-04-11T14:37:46.997Z,46.11
2023-04-11T14:40:14.356Z,46.06
2023-04-11T14:42:41.749Z,45.81
2023-04-11T14:45:09.355Z,46.21
2023-04-11T14:47:37.017Z,45.79
2023-04-11T14:50:04.761Z,45.95
2023-04-11T14:52:32.334Z,46.17
2023-04-11T14:54:59.934Z,45.77
2023-04-11T14:57:42.761Z,45.89
2023-04-11T15:00:17.400Z,45.38
2023-04-11T15:02:44.849Z,45.48
2023-04-11T15:05:14.330Z,45.57
2023-04-11T15:07:41.860Z,45.51
2023-04-11T15:10:09.795Z,45.37
2023-04-11T15:12:38.673Z,45.24
2023-04-11T15:15:06.576Z,45.49
2023-04-11T15:17:39.870Z,45.45
2023-04-11T15:20:09.055Z,45.17
2023-04-11T15:22:40.091Z,45.31
2023-04-11T15:25:09.767Z,45.41
2023-04-11T15:27:37.326Z,45.37
2023-04-11T15:30:06.573Z,45.45
2023-04-11T15:32:34.378Z,45.44
2023-04-11T15:35:02.075Z,45.45
2023-04-11T15:37:29.727Z,45.72
2023-04-11T15:39:58.315Z,45.89
2023-04-11T15:42:26.255Z,46.08
2023-04-11T15:44:53.709Z,46.11
2023-04-11T15:47:21.156Z,46.04
2023-04-11T15:49:48.492Z,45.96
2023-04-11T15:52:17.254Z,46.04
2023-04-11T15:54:44.759Z,45.80
2023-04-11T15:57:12.171Z,46.19
2023-04-11T15:59:41.876Z,46.16
2023-04-11T16:02:09.343Z,46.03
2023-04-11T16:04:39.928Z,46.21
2023-04-11T16:07:07.506Z,46.15
2023-04-11T16:09:35.574Z,46.45
2023-04-11T16:12:03.519Z,46.11
2023-04-11T16:14:30.886Z,46.51
2023-04-11T16:16:58.652Z,46.34
2023-04-11T16:19:26.021Z,46.50
2023-04-11T16:21:53.342Z,46.67
2023-04-11T16:24:21.454Z,46.59
2023-04-11T16:26:48.886Z,46.68
2023-04-11T16:29:16.582Z,46.64
2023-04-11T16:31:44.200Z,46.50
2023-04-11T16:34:11.829Z,46.78
2023-04-11T16:36:39.386Z,46.65
2023-04-11T16:39:06.937Z,46.63
2023-04-11T16:41:36.999Z,46.87
2023-04-11T16:44:06.460Z,46.87
2023-04-11T16:46:33.990Z,46.86
2023-04-11T16:49:01.637Z,46.92
2023-04-11T16:51:29.252Z,46.81
2023-04-11T16:53:59.154Z,46.66
2023-04-11T16:56:29.012Z,46.70
2023-04-11T16:58:57.164Z,47.12
2023-04-11T17:01:24.818Z,46.99
2023-04-11T17:03:54.548Z,46.79
2023-04-11T17:06:22.356Z,47.34
2023-04-11T17:08:49.730Z,47.01
2023-04-11T17:11:16.962Z,47.27
2023-04-11T17:13:46.298Z,47.48
2023-04-11T17:16:14.237Z,47.42
2023-04-11T17:18:42.166Z,47.27
2023-04-11T17:21:09.648Z,47.14
2023-04-11T17:23:43.092Z,47.55
2023-04-11T17:26:11.792Z,47.31
2023-04-11T17:28:45.234Z,47.56
2023-04-11T17:31:13.701Z,47.31
2023-04-11T17:33:43.220Z,47.41
2023-04-11T17:36:15.919Z,47.67
2023-04-11T17:38:44.165Z,47.16
2023-04-11T17:41:14.894Z,47.53
2023-04-11T17:43:43.605Z,47.71
2023-04-11T17:46:11.009Z,47.72
2023-04-11T17:48:38.537Z,47.51
2023-04-11T17:51:06.101Z,47.84
2023-04-11T17:53:34.139Z,47.95
2023-04-11T17:56:06.454Z,47.98
2023-04-11T17:58:33.946Z,47.57
2023-04-11T18:01:01.997Z,47.75
2023-04-11T18:03:35.765Z,47.59
2023-04-11T18:06:03.222Z,48.19
2023-04-11T18:08:46.698Z,48.03
2023-04-11T18:11:14.470Z,48.16
2023-04-11T18:13:43.510Z,47.97
2023-04-11T18:16:10.933Z,48.26
2023-04-11T18:18:38.392Z,48.03
2023-04-11T18:21:07.741Z,48.03
2023-04-11T18:23:35.619Z,48.04
2023-04-11T18:26:02.882Z,48.38
2023-04-11T18:28:30.239Z,48.30
2023-04-11T18:30:57.849Z,48.30
2023-04-11T18:33:25.159Z,48.25
2023-04-11T18:35:52.393Z,48.36
2023-04-11T18:38:19.709Z,48.47
2023-04-11T18:40:47.464Z,48.81
2023-04-11T18:43:15.712Z,48.91
2023-04-11T18:45:44.092Z,48.84
2023-04-11T18:48:12.518Z,48.51
2023-04-11T18:50:43.176Z,48.76
2023-04-11T18:53:13.946Z,49.12
2023-04-11T18:55:41.512Z,49.06
2023-04-11T18:58:10.394Z,48.84
2023-04-11T19:00:39.779Z,48.95
2023-04-11T19:03:15.300Z,49.36
2023-04-11T19:05:44.009Z,49.27
2023-04-11T19:08:11.629Z,49.49
2023-04-11T19:10:40.447Z,49.15
2023-04-11T19:13:07.660Z,49.75
2023-04-11T19:15:35.035Z,49.15
2023-04-11T19:18:02.440Z,49.45
2023-04-11T19:20:30.179Z,49.08
2023-04-11T19:22:57.780Z,49.43
2023-04-11T19:25:25.531Z,49.11
2023-04-11T19:27:53.034Z,49.20
2023-04-11T19:30:20.472Z,49.38
2023-04-11T19:32:49.249Z,49.52
2023-04-11T19:35:17.798Z,49.23
2023-04-11T19:37:45.473Z,49.41
2023-04-11T19:40:14.367Z,49.25
2023-04-11T19:42:42.305Z,49.83
2023-04-11T19:45:10.398Z,49.74
2023-04-11T19:47:39.693Z,49.48
2023-04-11T19:50:08.446Z,49.65
2023-04-11T19:52:35.912Z,49.75
2023-04-11T19:55:03.412Z,49.90
2023-04-11T19:57:31.484Z,49.59
2023-04-11T19:59:59.017Z,49.57
2023-04-11T20:02:27.071Z,50.00
2023-04-11T20:04:56.695Z,50.23
2023-04-11T20:07:24.225Z,50.11
2023-04-11T20:09:52.283Z,50.21
2023-04-11T20:12:19.850Z,50.00
2023-04-11T20:14:47.297Z,49.95
2023-04-11T20:17:14.894Z,49.92
2023-04-11T20:19:44.194Z,50.41
2023-04-11T20:22:18.017Z,50.18
2023-04-11T20:24:47.189Z,50.39
2023-04-11T20:27:15.111Z,50.37
2023-04-11T20:29:42.976Z,50.57
2023-04-11T20:32:10.679Z,50.22
2023-04-11T20:34:38.192Z,50.40
2023-04-11T20:37:08.324Z,50.50
2023-04-11T20:39:35.795Z,50.81
2023-04-11T20:42:03.291Z,50.59
2023-04-11T20:44:30.876Z,50.54
2023-04-11T20:46:58.231Z,50.66
2023-04-11T20:49:28.631Z,51.14
2023-04-11T20:51:55.892Z,50.70
2023-04-11T20:54:23.158Z,50.96
2023-04-11T20:56:50.378Z,51.20
2023-04-11T20:59:17.609Z,51.28
2023-04-11T21:01:44.777Z,51.20
2023-04-11T21:04:12.114Z,51.05
2023-04-11T21:06:39.463Z,51.52
2023-04-11T21:09:06.567Z,51.61
2023-04-11T21:11:33.604Z,51.45
2023-04-11T21:14:01.078Z,51.70
2023-04-11T21:16:28.300Z,51.58
2023-04-11T21:18:55.603Z,51.72
2023-04-11T21:21:22.842Z,51.48
2023-04-11T21:23:50.088Z,51.84
2023-04-11T21:26:17.519Z,51.80
2023-04-11T21:28:44.726Z,51.94
2023-04-11T21:31:12.061Z,51.78
2023-04-11T21:33:39.471Z,51.95
2023-04-11T21:36:07.134Z,52.11
2023-04-11T21:38:34.168Z,51.96
2023-04-11T21:41:01.161Z,51.65
2023-04-11T21:43:29.026Z,52.08
2023-04-11T21:45:56.211Z,51.75
2023-04-11T21:48:23.333Z,51.83
2023-04-11T21:50:50.472Z,51.79
2023-04-11T21:53:17.636Z,51.64
2023-04-11T21:55:46.356Z,51.72
2023-04-11T21:58:26.289Z,51.88
2023-04-11T22:00:55.970Z,51.80
2023-04-11T22:03:23.692Z,51.63
2023-04-11T22:05:52.688Z,51.55
2023-04-11T22:08:20.500Z,51.59
2023-04-11T22:10:48.517Z,51.57
2023-04-11T22:13:17.032Z,51.30
2023-04-11T22:15:44.379Z,51.50
2023-04-11T22:18:11.896Z,51.49
2023-04-11T22:20:41.132Z,51.37
2023-04-11T22:23:09.633Z,51.86
2023-04-11T22:25:37.472Z,51.96
2023-04-11T22:28:04.540Z,51.67
2023-04-11T22:30:31.816Z,51.81
2023-04-11T22:32:59.090Z,51.73
2023-04-11T22:35:26.459Z,52.02
2023-04-11T22:37:55.775Z,52.01
2023-04-11T22:40:22.998Z,51.81
2023-04-11T22:42:52.283Z,51.65
2023-04-11T22:45:20.365Z,51.73
2023-04-11T22:47:47.512Z,51.90
2023-04-11T22:50:16.155Z,52.06
2023-04-11T22:52:43.357Z,51.87
2023-04-11T22:55:11.306Z,51.93
2023-04-11T22:57:38.805Z,51.71
2023-04-11T23:00:07.835Z,52.00
2023-04-11T23:02:36.554Z,52.08
2023-04-11T23:05:04.292Z,52.04
2023-04-11T23:07:31.937Z,51.92
2023-04-11T23:10:01.682Z,51.78
2023-04-11T23:12:29.083Z,51.86
2023-04-11T23:14:56.301Z,52.01
2023-04-11T23:17:24.239Z,52.12
2023-04-11T23:19:51.330Z,52.00
2023-04-11T23:22:18.795Z,52.06
2023-04-11T23:24:46.028Z,52.06
2023-04-11T23:27:13.346Z,51.79
2023-04-11T23:29:40.442Z,51.94
2023-04-11T23:32:08.018Z,51.71
2023-04-11T23:34:36.225Z,51.67
2023-04-11T23:37:03.254Z,51.94
2023-04-11T23:39:30.679Z,51.78
2023-04-11T23:41:57.679Z,51.57
2023-04-11T23:44:24.978Z,52.00
2023-04-11T23:46:52.011Z,51.49
2023-04-11T23:49:19.034Z,51.93
2023-04-11T23:51:46.203Z,51.81
2023-04-11T23:54:13.355Z,51.46
2023-04-11T23:56:40.393Z,51.46
2023-04-11T23:59:07.368Z,51.95
